Time;durP1;ratioP1;P1;durP2;ratioP2;P2;SDS_P1;SDS_P2;PMS_P1;PMS_P2;Temp;Humidity;BMP_temperature;BMP_pressure;BME280_temperature;BME280_humidity;BME280_pressure;Samples;Min_cycle;Max_cycle;Signal;HPM_P1;HPM_P2
2023/03/14 00:01:20;;;;;;;6.85;0.80;;;12.00;99.90;;;;;;6243217;22;20008;-86
2023/03/14 00:03:46;;;;;;;7.35;0.85;;;12.00;99.90;;;;;;6244869;23;20437;-86
2023/03/14 00:06:13;;;;;;;6.47;1.02;;;11.90;99.90;;;;;;6240170;23;20403;-86
2023/03/14 00:08:39;;;;;;;5.18;0.80;;;11.90;99.90;;;;;;6242492;23;20035;-86
2023/03/14 00:11:10;;;;;;;4.57;0.60;;;11.80;99.90;;;;;;6242901;23;20008;-84
2023/03/14 00:13:36;;;;;;;3.53;0.52;;;11.70;99.90;;;;;;6243994;23;20012;-86
2023/03/14 00:16:03;;;;;;;4.03;0.60;;;11.60;99.90;;;;;;6245028;23;20004;-86
2023/03/14 00:18:29;;;;;;;4.80;0.40;;;11.60;99.90;;;;;;6244791;23;20058;-86
2023/03/14 00:21:02;;;;;;;4.80;0.60;;;11.50;99.90;;;;;;6245698;23;20388;-86
2023/03/14 00:23:28;;;;;;;3.42;0.43;;;11.40;99.90;;;;;;6244936;23;20018;-86
2023/03/14 00:26:02;;;;;;;6.68;0.50;;;11.30;99.90;;;;;;6246414;22;20000;-86
2023/03/14 00:28:28;;;;;;;5.00;0.40;;;11.30;99.90;;;;;;6245296;23;20342;-86
2023/03/14 00:30:53;;;;;;;4.43;0.40;;;11.30;99.90;;;;;;6245083;23;20055;-86
2023/03/14 00:33:19;;;;;;;2.58;0.30;;;11.30;99.90;;;;;;6246494;23;20003;-86
2023/03/14 00:35:56;;;;;;;3.30;0.30;;;11.30;99.90;;;;;;6244995;23;20010;-86
2023/03/14 00:38:22;;;;;;;4.47;0.38;;;11.30;99.90;;;;;;6245078;23;20070;-85
2023/03/14 00:40:48;;;;;;;4.68;0.40;;;11.30;99.90;;;;;;6242992;23;20018;-86
2023/03/14 00:43:13;;;;;;;2.88;0.40;;;11.30;99.90;;;;;;6246098;23;20087;-86
2023/03/14 00:45:39;;;;;;;5.30;0.50;;;11.30;99.90;;;;;;6244544;23;20003;-85
2023/03/14 00:48:04;;;;;;;4.97;0.70;;;11.30;99.90;;;;;;6244673;23;20008;-86
2023/03/14 00:50:30;;;;;;;5.68;0.50;;;11.40;99.90;;;;;;6243279;22;20008;-86
2023/03/14 00:52:55;;;;;;;4.20;0.40;;;11.40;99.90;;;;;;6244857;23;20087;-86
2023/03/14 00:55:21;;;;;;;6.05;0.55;;;11.40;99.90;;;;;;6242521;23;20012;-86
2023/03/14 00:57:46;;;;;;;4.93;0.40;;;11.40;99.90;;;;;;6244314;23;20000;-86
2023/03/14 01:00:12;;;;;;;5.55;0.60;;;11.40;99.90;;;;;;6243614;23;20000;-87
2023/03/14 01:02:38;;;;;;;8.00;0.60;;;11.40;99.90;;;;;;6243984;23;20150;-86
2023/03/14 01:05:04;;;;;;;5.65;0.57;;;11.50;99.90;;;;;;6244097;23;20050;-87
2023/03/14 01:07:29;;;;;;;5.93;0.60;;;11.50;99.90;;;;;;6242975;23;20047;-86
2023/03/14 01:09:55;;;;;;;3.22;0.50;;;11.50;99.90;;;;;;6245333;23;20023;-86
2023/03/14 01:12:21;;;;;;;5.57;0.50;;;11.50;99.90;;;;;;6243810;23;20035;-86
2023/03/14 01:14:46;;;;;;;5.85;0.88;;;11.50;99.90;;;;;;6242411;23;20000;-87
2023/03/14 01:17:12;;;;;;;5.20;0.40;;;11.40;99.90;;;;;;6244324;23;20004;-86
2023/03/14 01:19:37;;;;;;;5.65;0.60;;;11.50;99.90;;;;;;6243948;22;20343;-86
2023/03/14 01:22:03;;;;;;;4.35;0.40;;;11.40;99.90;;;;;;6242643;23;20084;-87
2023/03/14 01:24:29;;;;;;;6.63;0.93;;;11.40;99.90;;;;;;6242941;23;20001;-86
2023/03/14 01:26:55;;;;;;;6.68;0.57;;;11.40;99.90;;;;;;6242956;23;20015;-86
2023/03/14 01:29:20;;;;;;;4.32;0.40;;;11.30;99.90;;;;;;6242211;22;20007;-86
2023/03/14 01:31:46;;;;;;;4.15;0.55;;;11.30;99.90;;;;;;6245708;23;20393;-86
2023/03/14 01:34:11;;;;;;;7.50;1.00;;;11.30;99.90;;;;;;6242681;23;20132;-86
2023/03/14 01:36:37;;;;;;;5.82;0.40;;;11.20;99.90;;;;;;6242506;23;20035;-87
2023/03/14 01:39:03;;;;;;;5.25;0.68;;;11.20;99.90;;;;;;6243003;23;20418;-86
2023/03/14 01:41:28;;;;;;;7.10;0.30;;;11.20;99.90;;;;;;6243398;23;20008;-86
2023/03/14 01:43:54;;;;;;;5.90;0.60;;;11.10;99.90;;;;;;6242873;23;20012;-86
2023/03/14 01:46:25;;;;;;;6.40;0.50;;;11.20;99.90;;;;;;6242302;23;20000;-85
2023/03/14 01:48:57;;;;;;;5.93;0.40;;;11.20;99.90;;;;;;6244323;23;20347;-86
2023/03/14 01:51:36;;;;;;;3.05;0.30;;;11.10;99.90;;;;;;6242874;23;19996;-86
2023/03/14 01:54:07;;;;;;;2.45;0.30;;;11.10;99.90;;;;;;6241730;23;20283;-86
2023/03/14 01:56:32;;;;;;;5.10;0.50;;;11.20;99.90;;;;;;6243988;23;20000;-87
2023/03/14 01:59:00;;;;;;;7.75;0.40;;;11.10;99.90;;;;;;6243929;22;20004;-86
2023/03/14 02:01:27;;;;;;;8.20;0.40;;;11.20;99.90;;;;;;6242646;23;20014;-86
2023/03/14 02:04:00;;;;;;;5.32;0.50;;;11.10;99.90;;;;;;6243845;23;20316;-86
2023/03/14 02:06:33;;;;;;;8.43;0.50;;;11.00;99.90;;;;;;6243444;23;20000;-86
2023/03/14 02:09:00;;;;;;;6.07;0.40;;;10.90;99.90;;;;;;6217358;23;20008;-86
2023/03/14 02:11:29;;;;;;;6.22;0.40;;;10.80;99.90;;;;;;6217963;23;20099;-85
2023/03/14 02:13:57;;;;;;;6.90;0.40;;;10.70;99.90;;;;;;6217802;23;20068;-86
2023/03/14 02:16:23;;;;;;;9.38;0.77;;;10.60;99.90;;;;;;6217769;23;20012;-86
2023/03/14 02:18:49;;;;;;;8.20;0.40;;;10.50;99.90;;;;;;6216994;23;20383;-86
2023/03/14 02:21:14;;;;;;;4.30;0.50;;;10.50;99.90;;;;;;6217252;23;20058;-86
2023/03/14 02:24:20;;;;;;;4.20;0.40;;;10.40;99.90;;;;;;6216888;23;20008;-87
2023/03/14 02:27:25;;;;;;;5.22;0.40;;;10.30;99.90;;;;;;6218280;23;20011;-84
2023/03/14 02:30:05;;;;;;;4.90;0.40;;;10.30;99.90;;;;;;6122436;23;20013;-86
2023/03/14 02:32:33;;;;;;;10.75;0.70;;;10.30;99.90;;;;;;6122444;23;20073;-86
2023/03/14 02:35:03;;;;;;;3.75;0.55;;;10.30;99.90;;;;;;6167692;23;19996;-86
2023/03/14 02:37:48;;;;;;;5.07;0.73;;;10.20;99.90;;;;;;6216659;23;20011;-86
2023/03/14 02:40:14;;;;;;;6.90;0.40;;;10.20;99.90;;;;;;6243832;23;20036;-86
2023/03/14 02:42:40;;;;;;;3.60;0.50;;;10.10;99.90;;;;;;6217295;23;20443;-87
2023/03/14 02:45:08;;;;;;;8.60;0.50;;;10.10;99.90;;;;;;6216215;23;20430;-86
2023/03/14 02:47:51;;;;;;;6.68;0.50;;;10.00;99.90;;;;;;6217096;23;20004;-86
2023/03/14 02:50:21;;;;;;;7.85;0.50;;;9.90;99.90;;;;;;6216918;23;20004;-86
2023/03/14 02:52:47;;;;;;;3.28;0.40;;;9.90;99.90;;;;;;6215853;23;20004;-86
2023/03/14 02:55:13;;;;;;;7.90;0.60;;;9.90;99.90;;;;;;6216332;23;20026;-86
2023/03/14 02:57:38;;;;;;;3.67;0.60;;;9.90;99.90;;;;;;6217928;23;20036;-87
2023/03/14 03:00:05;;;;;;;6.43;0.85;;;9.90;99.90;;;;;;6216827;23;20039;-85
2023/03/14 03:02:31;;;;;;;5.82;0.45;;;9.90;99.90;;;;;;6216677;23;20016;-86
2023/03/14 03:04:57;;;;;;;7.45;0.63;;;9.90;99.90;;;;;;6217924;23;20102;-87
2023/03/14 03:07:23;;;;;;;6.07;0.50;;;9.90;99.90;;;;;;6225591;22;20027;-86
2023/03/14 03:09:49;;;;;;;3.80;0.68;;;9.90;99.90;;;;;;6242968;22;20326;-86
2023/03/14 03:12:14;;;;;;;5.00;0.60;;;9.90;99.90;;;;;;6243132;23;20000;-86
2023/03/14 03:14:40;;;;;;;7.43;0.90;;;9.90;99.90;;;;;;6244302;23;20087;-86
2023/03/14 03:17:06;;;;;;;7.93;0.98;;;9.90;99.90;;;;;;6244806;22;20000;-87
2023/03/14 03:19:32;;;;;;;7.18;0.82;;;9.80;99.90;;;;;;6243042;23;19992;-86
2023/03/14 03:21:58;;;;;;;9.27;1.48;;;9.90;99.90;;;;;;6242771;23;20019;-86
2023/03/14 03:24:25;;;;;;;6.97;1.45;;;10.00;99.90;;;;;;6241793;23;20039;-86
2023/03/14 03:26:51;;;;;;;8.27;0.65;;;10.10;99.90;;;;;;6243496;22;20004;-87
2023/03/14 03:29:16;;;;;;;8.70;0.77;;;10.10;99.90;;;;;;6241994;23;20043;-86
2023/03/14 03:31:42;;;;;;;6.60;0.65;;;10.10;99.90;;;;;;6242498;23;20011;-84
2023/03/14 03:34:08;;;;;;;6.90;0.88;;;10.20;99.90;;;;;;6241022;23;20014;-86
2023/03/14 03:36:33;;;;;;;7.40;1.10;;;10.20;99.90;;;;;;6242600;23;20011;-87
2023/03/14 03:38:59;;;;;;;8.27;0.80;;;10.20;99.90;;;;;;6242878;23;20454;-87
2023/03/14 03:41:25;;;;;;;9.05;0.77;;;10.30;99.90;;;;;;6241307;23;20032;-86
2023/03/14 03:43:50;;;;;;;7.07;0.70;;;10.30;99.90;;;;;;6241915;23;20346;-86
2023/03/14 03:46:16;;;;;;;9.02;1.30;;;10.30;99.90;;;;;;6240461;23;20054;-86
2023/03/14 03:48:41;;;;;;;6.47;0.50;;;10.30;99.90;;;;;;6243350;22;20004;-86
2023/03/14 03:51:10;;;;;;;7.68;0.70;;;10.30;99.90;;;;;;6244450;23;20035;-86
2023/03/14 03:53:36;;;;;;;14.25;1.05;;;10.40;99.90;;;;;;6244550;23;20031;-87
2023/03/14 03:56:01;;;;;;;6.38;0.68;;;10.40;99.90;;;;;;6243936;23;20000;-86
2023/03/14 03:58:27;;;;;;;12.13;0.90;;;10.40;99.90;;;;;;6244435;22;20347;-87
2023/03/14 04:00:53;;;;;;;6.25;0.50;;;10.40;99.90;;;;;;6244671;23;20024;-87
2023/03/14 04:03:19;;;;;;;12.40;0.80;;;10.40;99.90;;;;;;6242823;22;20115;-86
2023/03/14 04:05:44;;;;;;;8.13;0.68;;;10.40;99.90;;;;;;6243891;23;20303;-86
2023/03/14 04:08:10;;;;;;;8.77;0.50;;;10.40;99.90;;;;;;6244208;23;20020;-86
2023/03/14 04:10:36;;;;;;;10.00;0.85;;;10.40;99.90;;;;;;6243709;23;20000;-86
2023/03/14 04:13:02;;;;;;;5.60;0.63;;;10.40;99.90;;;;;;6245883;22;20004;-86
2023/03/14 04:15:27;;;;;;;8.15;0.88;;;10.40;99.90;;;;;;6244044;23;20342;-86
2023/03/14 04:17:57;;;;;;;9.02;0.85;;;10.50;99.90;;;;;;6244075;23;20008;-86
2023/03/14 04:20:23;;;;;;;7.28;0.50;;;10.40;99.90;;;;;;6243695;23;20007;-86
2023/03/14 04:22:48;;;;;;;7.72;0.60;;;10.50;99.90;;;;;;6244745;23;20008;-86
2023/03/14 04:25:17;;;;;;;5.82;1.02;;;10.50;99.90;;;;;;6242081;23;20001;-85
2023/03/14 04:27:42;;;;;;;6.55;0.43;;;10.50;99.90;;;;;;6243676;23;20011;-86
2023/03/14 04:30:08;;;;;;;7.63;0.60;;;10.50;99.90;;;;;;6242838;23;20005;-86
2023/03/14 04:32:34;;;;;;;9.55;0.68;;;10.50;99.90;;;;;;6243486;22;20036;-86
2023/03/14 04:34:59;;;;;;;8.98;0.70;;;10.50;99.90;;;;;;6244008;23;20000;-87
2023/03/14 04:37:25;;;;;;;8.57;0.80;;;10.50;99.90;;;;;;6243135;23;20001;-86
2023/03/14 04:39:50;;;;;;;3.88;0.40;;;10.50;99.90;;;;;;6243675;23;19992;-86
2023/03/14 04:42:16;;;;;;;4.13;0.73;;;10.50;99.90;;;;;;6241192;23;20403;-86
2023/03/14 04:44:43;;;;;;;6.60;0.60;;;10.50;99.90;;;;;;6243827;23;20716;-86
2023/03/14 04:47:08;;;;;;;8.40;0.50;;;10.50;99.90;;;;;;6242250;23;20004;-86
2023/03/14 04:49:34;;;;;;;5.88;0.40;;;10.60;99.90;;;;;;6243594;23;20008;-86
2023/03/14 04:52:00;;;;;;;8.73;0.63;;;10.50;99.90;;;;;;6243248;23;20035;-87
2023/03/14 04:54:25;;;;;;;8.23;0.50;;;10.50;99.90;;;;;;6242807;22;20008;-86
2023/03/14 04:56:51;;;;;;;5.30;0.77;;;10.50;99.90;;;;;;6242535;23;20077;-86
2023/03/14 04:59:16;;;;;;;4.03;0.30;;;10.50;99.90;;;;;;6242639;23;20032;-86
2023/03/14 05:01:42;;;;;;;6.18;0.40;;;10.40;99.90;;;;;;6243723;23;20005;-86
2023/03/14 05:04:08;;;;;;;6.95;0.93;;;10.30;99.90;;;;;;6243530;23;20047;-86
2023/03/14 05:06:34;;;;;;;5.18;0.38;;;10.30;99.90;;;;;;6243037;23;20000;-86
2023/03/14 05:09:00;;;;;;;3.70;0.30;;;10.20;99.90;;;;;;6218413;23;20020;-86
2023/03/14 05:11:26;;;;;;;3.40;0.30;;;10.10;99.90;;;;;;6216253;23;20004;-87
2023/03/14 05:13:51;;;;;;;6.35;0.30;;;10.10;99.90;;;;;;6218864;23;20008;-86
2023/03/14 05:16:17;;;;;;;4.63;0.30;;;10.10;99.90;;;;;;6216045;22;20005;-86
2023/03/14 05:18:42;;;;;;;2.78;0.30;;;10.10;99.90;;;;;;6218139;23;20012;-85
2023/03/14 05:21:08;;;;;;;4.85;0.50;;;10.10;99.90;;;;;;6218347;23;20007;-85
2023/03/14 05:23:33;;;;;;;7.50;0.65;;;10.10;99.90;;;;;;6217799;23;20470;-86
2023/03/14 05:25:59;;;;;;;9.52;0.57;;;10.10;99.90;;;;;;6216412;23;20092;-86
2023/03/14 05:28:25;;;;;;;4.53;0.40;;;10.10;99.90;;;;;;6216608;23;20008;-85
2023/03/14 05:30:50;;;;;;;5.97;0.40;;;10.10;99.90;;;;;;6216387;23;20000;-86
2023/03/14 05:33:16;;;;;;;5.15;0.50;;;10.00;99.90;;;;;;6216810;23;20079;-86
2023/03/14 05:35:42;;;;;;;4.80;0.50;;;10.00;99.90;;;;;;6218312;23;20004;-86
2023/03/14 05:38:08;;;;;;;4.63;0.45;;;10.00;99.90;;;;;;6217283;23;20027;-85
2023/03/14 05:40:34;;;;;;;5.65;0.80;;;10.00;99.90;;;;;;6217636;22;20426;-86
2023/03/14 05:43:00;;;;;;;5.20;0.77;;;10.00;99.90;;;;;;6272990;22;20098;-86
2023/03/14 05:45:25;;;;;;;5.00;0.43;;;10.00;99.90;;;;;;6247881;22;20003;-85
2023/03/14 05:47:51;;;;;;;5.82;0.50;;;10.00;99.90;;;;;;6246714;22;20014;-86
2023/03/14 05:50:16;;;;;;;4.05;0.43;;;10.00;99.90;;;;;;6245097;22;20374;-85
2023/03/14 05:52:42;;;;;;;4.05;0.73;;;9.90;99.90;;;;;;6221659;23;20011;-85
2023/03/14 05:55:08;;;;;;;3.53;0.52;;;9.90;99.90;;;;;;6217861;23;20011;-86
2023/03/14 05:57:34;;;;;;;3.83;0.43;;;9.90;99.90;;;;;;6245813;23;20000;-86
2023/03/14 05:59:59;;;;;;;3.08;0.40;;;9.90;99.90;;;;;;6218557;23;20008;-86
2023/03/14 06:02:25;;;;;;;2.72;0.50;;;9.90;99.90;;;;;;6218147;23;20012;-86
2023/03/14 06:04:51;;;;;;;5.55;0.80;;;9.90;99.90;;;;;;6219234;23;20023;-85
2023/03/14 06:07:16;;;;;;;2.97;0.50;;;9.90;99.90;;;;;;6218751;23;20342;-86
2023/03/14 06:09:42;;;;;;;3.50;0.60;;;9.90;99.90;;;;;;6218567;23;20004;-85
2023/03/14 06:12:07;;;;;;;3.17;0.50;;;9.90;99.90;;;;;;6218911;23;20008;-86
2023/03/14 06:14:33;;;;;;;3.75;0.52;;;9.90;99.90;;;;;;6218747;23;20008;-87
2023/03/14 06:16:59;;;;;;;4.25;0.77;;;9.90;99.90;;;;;;6218885;23;20000;-86
2023/03/14 06:19:25;;;;;;;4.03;0.93;;;10.00;99.90;;;;;;6219292;23;20011;-86
2023/03/14 06:21:51;;;;;;;2.40;0.50;;;9.90;99.90;;;;;;6218890;23;20011;-85
2023/03/14 06:24:17;;;;;;;2.72;0.65;;;10.00;99.90;;;;;;6218384;23;20114;-86
2023/03/14 06:26:43;;;;;;;4.93;0.70;;;10.00;99.90;;;;;;6215603;23;20000;-86
2023/03/14 06:29:08;;;;;;;4.03;0.80;;;10.00;99.90;;;;;;6218018;23;20046;-85
2023/03/14 06:31:34;;;;;;;4.53;1.10;;;10.00;99.90;;;;;;6216365;23;20004;-87
2023/03/14 06:34:00;;;;;;;4.95;0.80;;;10.00;99.90;;;;;;6218400;23;20000;-84
2023/03/14 06:36:26;;;;;;;2.20;0.80;;;10.00;99.90;;;;;;6217693;23;20046;-85
2023/03/14 06:38:51;;;;;;;6.45;1.10;;;10.00;99.90;;;;;;6218523;23;20430;-86
2023/03/14 06:41:18;;;;;;;3.67;0.98;;;10.00;99.90;;;;;;6222647;23;20075;-85
2023/03/14 06:43:43;;;;;;;2.90;0.90;;;10.00;99.90;;;;;;6242128;23;20008;-85
2023/03/14 06:46:09;;;;;;;4.45;1.00;;;10.00;99.90;;;;;;6243777;23;20011;-87
2023/03/14 06:48:34;;;;;;;3.17;1.00;;;10.00;99.90;;;;;;6243778;23;20039;-88
2023/03/14 06:51:00;;;;;;;6.28;1.05;;;10.00;99.90;;;;;;6244689;23;20000;-89
2023/03/14 06:53:26;;;;;;;3.95;1.58;;;10.00;99.90;;;;;;6242978;23;20004;-88
2023/03/14 06:55:51;;;;;;;6.78;1.52;;;10.00;99.90;;;;;;6243445;23;20015;-89
2023/03/14 06:58:17;;;;;;;5.40;1.83;;;10.10;99.90;;;;;;6243272;23;20290;-88
2023/03/14 07:00:43;;;;;;;4.78;1.30;;;10.10;99.90;;;;;;6243060;23;20024;-88
2023/03/14 07:03:10;;;;;;;5.25;1.55;;;10.10;99.90;;;;;;6243077;23;20027;-88
2023/03/14 07:05:35;;;;;;;4.25;1.40;;;10.20;99.90;;;;;;6243396;23;20000;-89
2023/03/14 07:08:01;;;;;;;5.07;1.50;;;10.20;99.90;;;;;;6242894;23;20057;-88
2023/03/14 07:10:27;;;;;;;5.35;1.50;;;10.20;99.90;;;;;;6243690;23;20040;-88
2023/03/14 07:12:53;;;;;;;4.53;1.55;;;10.20;99.90;;;;;;6243845;23;20004;-89
2023/03/14 07:15:19;;;;;;;3.33;1.65;;;10.20;99.90;;;;;;6242040;23;20004;-90
2023/03/14 07:17:45;;;;;;;5.15;1.63;;;10.20;99.90;;;;;;6242540;23;20011;-89
2023/03/14 07:20:11;;;;;;;3.20;1.30;;;10.20;99.90;;;;;;6241993;23;20042;-90
2023/03/14 07:22:36;;;;;;;2.97;0.60;;;10.20;99.90;;;;;;6245112;23;20012;-95
2023/03/14 07:25:02;;;;;;;4.18;0.50;;;9.90;99.90;;;;;;6246596;23;19996;-91
2023/03/14 07:27:28;;;;;;;1.95;0.40;;;9.20;99.90;;;;;;6246796;23;20135;-90
2023/03/14 07:29:53;;;;;;;1.55;0.40;;;8.80;99.90;;;;;;6246933;23;20004;-89
2023/03/14 07:32:19;;;;;;;1.00;0.10;;;8.40;99.90;;;;;;6244504;22;20027;-90
2023/03/14 07:34:44;;;;;;;3.75;0.20;;;8.20;99.90;;;;;;6247889;22;20000;-89
2023/03/14 07:37:10;;;;;;;2.13;0.20;;;8.00;99.90;;;;;;6246268;23;20084;-89
2023/03/14 07:39:36;;;;;;;3.13;0.22;;;7.80;99.90;;;;;;6245909;22;20004;-89
2023/03/14 07:42:01;;;;;;;5.47;0.25;;;7.70;99.90;;;;;;6246279;23;20011;-90
2023/03/14 07:44:27;;;;;;;1.10;0.10;;;7.60;99.90;;;;;;6248100;22;20074;-89
2023/03/14 07:46:53;;;;;;;0.77;0.20;;;7.60;99.90;;;;;;6246069;22;20062;-89
2023/03/14 07:49:18;;;;;;;1.13;0.17;;;7.60;99.90;;;;;;6246447;23;20011;-89
2023/03/14 07:51:46;;;;;;;1.08;0.20;;;7.50;99.90;;;;;;6246039;23;20028;-89
2023/03/14 07:54:12;;;;;;;1.77;0.20;;;7.50;99.90;;;;;;6246481;23;20070;-89
2023/03/14 07:56:38;;;;;;;3.10;0.40;;;7.50;99.90;;;;;;6246623;23;20368;-89
2023/03/14 07:59:03;;;;;;;3.63;0.28;;;7.40;99.90;;;;;;6246233;23;20083;-89
2023/03/14 08:01:29;;;;;;;2.40;0.28;;;7.40;99.90;;;;;;6245731;23;20004;-89
2023/03/14 08:03:54;;;;;;;2.90;0.85;;;7.40;99.90;;;;;;6246559;23;20419;-90
2023/03/14 08:06:20;;;;;;;3.78;0.60;;;7.40;99.90;;;;;;6246005;22;20090;-89
2023/03/14 08:08:46;;;;;;;4.55;1.30;;;7.40;99.90;;;;;;6246653;23;20129;-88
2023/03/14 08:11:11;;;;;;;4.85;1.35;;;7.40;99.90;;;;;;6244825;22;20035;-89
2023/03/14 08:13:37;;;;;;;4.50;1.17;;;7.40;99.90;;;;;;6245206;22;20431;-88
2023/03/14 08:16:03;;;;;;;3.72;1.23;;;7.40;99.90;;;;;;6246041;23;20008;-88
2023/03/14 08:18:29;;;;;;;3.00;1.48;;;7.50;99.90;;;;;;6246547;23;20456;-88
2023/03/14 08:20:55;;;;;;;2.92;1.58;;;7.50;99.90;;;;;;6245730;22;20000;-88
2023/03/14 08:23:21;;;;;;;4.90;2.05;;;7.50;99.90;;;;;;6245550;23;20020;-89
2023/03/14 08:25:49;;;;;;;8.10;2.15;;;7.50;99.90;;;;;;6244684;22;20013;-88
2023/03/14 08:28:15;;;;;;;6.20;1.80;;;7.50;99.90;;;;;;6246358;22;20031;-88
2023/03/14 08:30:40;;;;;;;4.95;1.95;;;7.50;99.90;;;;;;6246442;23;20000;-88
2023/03/14 08:33:06;;;;;;;6.68;2.17;;;7.50;99.90;;;;;;6246449;23;20000;-89
2023/03/14 08:35:32;;;;;;;3.75;1.40;;;7.60;99.90;;;;;;6245225;23;20334;-89
2023/03/14 08:37:57;;;;;;;6.20;1.80;;;7.60;99.90;;;;;;6245133;23;20004;-90
2023/03/14 08:40:23;;;;;;;4.95;1.30;;;7.60;99.90;;;;;;6244108;23;20492;-88
2023/03/14 08:42:49;;;;;;;5.07;1.00;;;7.70;99.90;;;;;;6244880;23;20057;-88
2023/03/14 08:45:18;;;;;;;3.78;0.90;;;7.70;99.90;;;;;;6244326;22;20000;-88
2023/03/14 08:47:44;;;;;;;2.53;0.50;;;7.60;99.90;;;;;;6244901;23;20000;-88
2023/03/14 08:50:11;;;;;;;2.67;0.40;;;7.60;99.90;;;;;;6245110;23;20043;-88
2023/03/14 08:52:40;;;;;;;2.08;0.40;;;7.50;99.90;;;;;;6243983;23;20024;-88
2023/03/14 08:55:10;;;;;;;2.92;0.68;;;7.50;99.90;;;;;;6244744;23;20000;-90
2023/03/14 08:57:36;;;;;;;4.35;1.10;;;7.40;99.90;;;;;;6245540;23;20035;-89
2023/03/14 09:00:05;;;;;;;5.05;0.50;;;7.20;99.90;;;;;;6244771;23;19996;-89
2023/03/14 09:02:31;;;;;;;6.30;0.40;;;6.90;99.90;;;;;;6245381;23;20035;-88
2023/03/14 09:04:56;;;;;;;4.18;0.50;;;6.70;99.90;;;;;;6245559;23;20403;-88
2023/03/14 09:07:22;;;;;;;4.38;0.30;;;6.60;99.90;;;;;;6245054;23;20083;-88
2023/03/14 09:09:48;;;;;;;4.32;0.30;;;6.40;99.90;;;;;;6245597;23;20005;-87
2023/03/14 09:12:13;;;;;;;3.47;0.32;;;6.30;99.90;;;;;;6244992;23;20156;-88
2023/03/14 09:14:39;;;;;;;6.05;0.82;;;6.20;99.90;;;;;;6243339;22;20004;-88
2023/03/14 09:17:05;;;;;;;6.43;0.43;;;6.10;99.90;;;;;;6243540;23;20000;-88
2023/03/14 09:19:30;;;;;;;4.45;0.30;;;6.10;99.90;;;;;;6244801;23;20008;-88
2023/03/14 09:21:56;;;;;;;1.33;0.20;;;6.10;99.90;;;;;;6244725;23;20000;-88
2023/03/14 09:24:21;;;;;;;2.47;0.20;;;6.10;99.90;;;;;;6242975;23;20637;-88
2023/03/14 09:26:47;;;;;;;4.65;0.15;;;6.10;99.90;;;;;;6243251;22;20342;-87
2023/03/14 09:29:12;;;;;;;7.68;0.30;;;6.10;99.90;;;;;;6243802;23;20079;-87
2023/03/14 09:31:38;;;;;;;3.30;0.20;;;6.20;99.90;;;;;;6243001;23;20011;-88
2023/03/14 09:34:04;;;;;;;2.00;0.20;;;6.20;99.90;;;;;;6242515;23;20071;-88
2023/03/14 09:36:30;;;;;;;2.75;0.68;;;6.30;99.90;;;;;;6243283;23;20452;-88
2023/03/14 09:38:56;;;;;;;4.13;0.20;;;6.40;99.90;;;;;;6243880;22;20000;-88
2023/03/14 09:41:29;;;;;;;2.83;0.20;;;6.50;99.90;;;;;;6243434;23;20039;-88
2023/03/14 09:44:06;;;;;;;3.75;0.38;;;6.60;99.90;;;;;;6244461;23;20030;-87
2023/03/14 09:46:35;;;;;;;3.17;0.20;;;6.70;99.90;;;;;;6244384;23;20027;-87
2023/03/14 09:49:01;;;;;;;5.78;0.40;;;6.80;99.90;;;;;;6243435;23;20004;-87
2023/03/14 09:51:27;;;;;;;5.05;0.30;;;6.90;99.90;;;;;;6244331;23;20017;-87
2023/03/14 09:53:53;;;;;;;4.90;0.52;;;6.90;99.90;;;;;;6244498;23;20005;-87
2023/03/14 09:56:22;;;;;;;4.75;0.20;;;6.90;99.90;;;;;;6244045;23;20057;-86
2023/03/14 09:58:55;;;;;;;3.97;0.20;;;6.80;99.90;;;;;;6243911;23;20011;-87
2023/03/14 10:01:25;;;;;;;5.90;0.20;;;6.80;99.90;;;;;;6243545;23;20050;-87
2023/03/14 10:03:55;;;;;;;5.63;0.35;;;6.80;99.90;;;;;;6243927;23;20016;-86
2023/03/14 10:06:28;;;;;;;6.47;0.50;;;6.80;99.90;;;;;;6243756;23;20737;-86
2023/03/14 10:08:55;;;;;;;4.07;0.43;;;6.80;99.90;;;;;;6245344;22;20019;-87
2023/03/14 10:11:21;;;;;;;8.30;0.50;;;6.80;99.90;;;;;;6243753;23;20472;-86
2023/03/14 10:14:12;;;;;;;9.70;0.43;;;6.70;99.90;;;;;;6244216;23;20004;-86
2023/03/14 10:16:43;;;;;;;6.82;0.40;;;6.80;99.90;;;;;;6245381;22;20081;-85
2023/03/14 10:19:15;;;;;;;15.75;0.75;;;6.80;99.90;;;;;;6243058;23;20012;-85
2023/03/14 10:21:50;;;;;;;9.63;0.70;;;6.80;99.90;;;;;;6243679;23;19997;-86
2023/03/14 10:24:28;;;;;;;9.52;1.48;;;6.90;99.90;;;;;;6243281;23;20346;-86
2023/03/14 10:27:02;;;;;;;13.52;0.80;;;7.00;99.90;;;;;;6244152;23;20032;-86
2023/03/14 10:29:32;;;;;;;7.32;0.80;;;7.00;99.90;;;;;;6243520;23;20004;-86
2023/03/14 10:32:02;;;;;;;14.02;1.00;;;7.10;99.90;;;;;;6243818;23;20017;-86
2023/03/14 10:34:34;;;;;;;11.18;0.80;;;7.20;99.90;;;;;;6243764;23;20004;-87
2023/03/14 10:37:21;;;;;;;14.48;0.73;;;7.30;99.90;;;;;;6243503;22;20086;-86
2023/03/14 10:40:05;;;;;;;14.15;0.70;;;7.40;99.90;;;;;;6242135;22;20004;-86
2023/03/14 10:42:34;;;;;;;14.13;0.90;;;7.50;99.90;;;;;;6243579;23;20397;-86
2023/03/14 10:45:31;;;;;;;17.67;1.25;;;7.60;99.90;;;;;;6243046;22;20310;-85
2023/03/14 10:48:05;;;;;;;10.35;0.75;;;7.60;99.90;;;;;;6243248;22;20001;-86
2023/03/14 10:50:31;;;;;;;17.10;1.52;;;7.60;99.90;;;;;;6242988;22;20057;-85
2023/03/14 10:53:05;;;;;;;11.05;1.60;;;7.70;99.90;;;;;;6242635;22;20000;-85
2023/03/14 10:55:44;;;;;;;16.40;0.88;;;7.70;99.90;;;;;;6244942;22;19992;-86
2023/03/14 10:58:28;;;;;;;15.73;0.80;;;7.80;99.90;;;;;;6244097;22;20079;-86
2023/03/14 11:01:19;;;;;;;13.98;1.15;;;7.90;99.90;;;;;;6242920;23;20004;-86
2023/03/14 11:04:01;;;;;;;17.33;1.45;;;7.90;99.90;;;;;;6241102;22;20038;-86
2023/03/14 11:06:55;;;;;;;13.17;1.07;;;7.80;99.90;;;;;;6241822;22;20063;-89
2023/03/14 11:09:26;;;;;;;14.30;1.10;;;7.50;99.90;;;;;;6243349;23;20010;-90
2023/03/14 11:11:51;;;;;;;16.17;1.40;;;6.70;99.90;;;;;;6243653;23;19996;-88
2023/03/14 11:14:25;;;;;;;18.83;0.68;;;6.10;99.90;;;;;;6243241;23;20035;-90
2023/03/14 11:17:01;;;;;;;14.73;0.88;;;5.80;99.90;;;;;;6240975;22;19998;-89
2023/03/14 11:20:04;;;;;;;20.42;1.30;;;5.70;99.90;;;;;;6240027;22;20016;-89
2023/03/14 11:22:59;;;;;;;16.52;1.60;;;5.80;99.90;;;;;;6238702;22;20250;-90
2023/03/14 11:25:58;;;;;;;15.25;1.02;;;6.00;99.90;;;;;;6236065;22;20003;-88
2023/03/14 11:28:31;;;;;;;21.50;2.30;;;6.20;99.90;;;;;;6234888;22;20015;-89
2023/03/14 11:31:21;;;;;;;17.25;1.25;;;6.40;99.90;;;;;;6235077;22;20000;-88
2023/03/14 11:34:00;;;;;;;16.55;1.20;;;6.50;99.90;;;;;;6234488;22;20087;-89
2023/03/14 11:36:41;;;;;;;12.45;1.25;;;6.60;99.90;;;;;;6240711;22;20023;-89
2023/03/14 11:39:15;;;;;;;14.32;1.00;;;6.70;99.90;;;;;;6241160;22;20003;-89
2023/03/14 11:41:52;;;;;;;14.93;1.33;;;6.60;99.90;;;;;;6242401;22;20019;-89
2023/03/14 11:44:19;;;;;;;13.35;1.05;;;6.50;99.90;;;;;;6245059;22;20061;-88
2023/03/14 11:47:01;;;;;;;14.93;0.88;;;6.40;99.90;;;;;;6243450;22;20050;-88
2023/03/14 11:49:41;;;;;;;16.60;2.13;;;6.20;99.90;;;;;;6242958;23;20083;-89
2023/03/14 11:52:33;;;;;;;24.13;2.13;;;6.20;99.90;;;;;;6244130;22;20438;-88
2023/03/14 11:55:12;;;;;;;23.38;1.52;;;6.20;99.90;;;;;;6243382;22;20008;-89
2023/03/14 11:57:40;;;;;;;21.88;1.52;;;6.50;99.90;;;;;;6243273;22;20139;-88
2023/03/14 12:00:23;;;;;;;15.68;2.05;;;6.70;99.90;;;;;;6242556;23;20034;-89
2023/03/14 12:03:17;;;;;;;9.75;0.70;;;7.00;99.90;;;;;;6244036;23;20016;-88
2023/03/14 12:06:28;;;;;;;18.90;1.70;;;7.10;99.90;;;;;;6243907;23;20434;-89
2023/03/14 12:09:03;;;;;;;14.73;1.10;;;6.90;99.90;;;;;;6098928;23;20002;-87
2023/03/14 12:11:56;;;;;;;11.85;1.35;;;6.90;99.90;;;;;;6099493;23;20468;-88
2023/03/14 12:14:28;;;;;;;16.55;1.67;;;7.00;99.90;;;;;;6201542;23;20911;-88
2023/03/14 12:16:57;;;;;;;13.30;1.10;;;7.20;99.90;;;;;;6243602;22;20004;-87
2023/03/14 12:19:23;;;;;;;15.35;1.08;;;7.30;99.90;;;;;;6244418;23;20497;-87
2023/03/14 12:21:53;;;;;;;16.98;1.13;;;7.50;99.90;;;;;;6245423;23;20000;-87
2023/03/14 12:24:22;;;;;;;7.88;1.15;;;7.70;99.90;;;;;;6244971;23;20012;-88
2023/03/14 12:26:57;;;;;;;9.55;0.60;;;7.80;99.90;;;;;;6244976;23;20426;-87
2023/03/14 12:29:23;;;;;;;8.40;0.90;;;7.90;99.90;;;;;;6243684;22;20000;-87
2023/03/14 12:32:09;;;;;;;10.82;1.02;;;7.90;99.90;;;;;;6245019;23;20434;-87
2023/03/14 12:34:41;;;;;;;11.93;0.90;;;8.00;99.90;;;;;;6245012;23;20024;-87
2023/03/14 12:37:13;;;;;;;9.00;0.85;;;8.20;99.90;;;;;;6244892;23;20005;-87
2023/03/14 12:40:10;;;;;;;14.80;0.65;;;8.20;99.90;;;;;;6244602;23;20008;-87
2023/03/14 12:42:42;;;;;;;11.35;1.00;;;7.90;99.90;;;;;;6237091;23;20058;-87
2023/03/14 12:45:21;;;;;;;15.35;1.17;;;7.80;99.90;;;;;;6244735;23;20091;-87
2023/03/14 12:47:56;;;;;;;12.07;0.93;;;7.80;99.90;;;;;;6244457;23;20058;-87
2023/03/14 12:50:38;;;;;;;13.38;1.35;;;7.90;99.90;;;;;;6244408;23;20450;-86
2023/03/14 12:53:32;;;;;;;5.63;0.63;;;7.90;99.90;;;;;;6244752;23;20165;-87
2023/03/14 12:56:46;;;;;;;8.27;0.40;;;8.00;99.90;;;;;;6244790;23;20805;-87
2023/03/14 12:59:32;;;;;;;8.20;1.17;;;8.00;99.90;;;;;;6114158;22;20057;-86
2023/03/14 13:02:06;;;;;;;6.45;0.47;;;8.10;99.90;;;;;;6244333;23;20008;-87